Carterton, United Kingdom
Current Conditions -  °F | °C
As of 6:50 PM on Wednesday 26 Nov 2014 (Local Time) from EGVN Reporting Station
Moderate Fog Moderate Fog  
Wind Chill: 45°   Ceiling: 200
Heat Index: 45°   Visibility: 0.56mi
Dew Point: 45°   Wind: 2mph
Humidity: 100%   Direction: 30°NNE
Pressure: 29.8"   Gusts: NA
Location:  51.76°N, 1.59°W
Report Text: EGVN 261850Z 03002KT 0900 FG OVC002 07/07 Q1009 AMB TEMPO OVC001 RED
Loading
Personal Weather Stations






























Interactive Weather Map New forecast layout! Learn more

10-Day Weather Forecast

Advertisements
Track Severe Weather on mobile